Time;durP1;ratioP1;P1;durP2;ratioP2;P2;SDS_P1;SDS_P2;PMS_P1;PMS_P2;Temp;Humidity;BMP_temperature;BMP_pressure;BME280_temperature;BME280_humidity;BME280_pressure;Samples;Min_cycle;Max_cycle;Signal;HPM_P1;HPM_P2
2023/04/29 00:00:07;;;;;;;50.20;33.92;;;9.00;99.90;;;;;;5096502;28;20043;-41
2023/04/29 00:02:33;;;;;;;45.10;32.80;;;9.00;99.90;;;;;;5095163;28;20604;-41
2023/04/29 00:04:59;;;;;;;51.67;33.88;;;9.00;99.90;;;;;;5096814;28;20055;-40
2023/04/29 00:07:25;;;;;;;46.63;33.28;;;9.00;99.90;;;;;;5095812;28;20565;-37
2023/04/29 00:09:51;;;;;;;43.65;32.38;;;9.00;99.90;;;;;;5096147;28;20462;-39
2023/04/29 00:12:17;;;;;;;46.65;32.60;;;9.00;99.90;;;;;;5095680;28;20058;-37
2023/04/29 00:14:43;;;;;;;48.97;33.42;;;9.00;99.90;;;;;;5095948;28;20422;-43
2023/04/29 00:17:09;;;;;;;45.63;31.65;;;9.00;99.90;;;;;;5095885;28;20512;-41
2023/04/29 00:19:34;;;;;;;47.55;32.00;;;9.00;99.90;;;;;;5095541;28;20517;-39
2023/04/29 00:22:00;;;;;;;47.38;33.95;;;9.00;99.90;;;;;;5095036;28;20155;-42
2023/04/29 00:24:26;;;;;;;52.42;33.97;;;8.90;99.90;;;;;;5096160;28;20606;-43
2023/04/29 00:26:52;;;;;;;45.63;32.60;;;9.00;99.90;;;;;;5095602;28;20047;-46
2023/04/29 00:29:18;;;;;;;47.85;33.75;;;8.90;99.90;;;;;;5094604;28;20054;-37
2023/04/29 00:31:44;;;;;;;51.50;34.38;;;8.90;99.90;;;;;;5077860;28;20552;-38
2023/04/29 00:34:10;;;;;;;50.35;34.05;;;8.90;99.90;;;;;;5095779;28;20039;-41
2023/04/29 00:36:35;;;;;;;48.25;33.15;;;8.90;99.90;;;;;;5095950;28;20054;-47
2023/04/29 00:39:01;;;;;;;53.03;33.58;;;8.90;99.90;;;;;;5095800;28;20463;-39
2023/04/29 00:41:28;;;;;;;51.20;32.25;;;8.90;99.90;;;;;;5082946;28;20488;-44
2023/04/29 00:43:54;;;;;;;49.40;31.17;;;8.90;99.90;;;;;;5095668;28;20088;-42
2023/04/29 00:46:19;;;;;;;43.13;32.28;;;9.00;99.90;;;;;;5096165;28;20469;-43
2023/04/29 00:48:45;;;;;;;43.53;32.03;;;9.00;99.90;;;;;;5095430;28;20039;-36
2023/04/29 00:51:11;;;;;;;46.80;31.08;;;9.00;99.90;;;;;;5095805;28;20040;-43
2023/04/29 00:53:37;;;;;;;41.25;29.80;;;9.00;99.90;;;;;;5095264;28;20044;-39
2023/04/29 00:56:06;;;;;;;46.80;29.30;;;9.00;99.90;;;;;;5096171;28;20123;-41
2023/04/29 00:58:34;;;;;;;45.42;30.75;;;9.00;99.90;;;;;;5095803;28;20402;-38
2023/04/29 01:01:01;;;;;;;41.03;29.30;;;9.00;99.90;;;;;;5096087;28;20381;-40
2023/04/29 01:03:30;;;;;;;43.95;31.52;;;9.00;99.90;;;;;;5095274;28;20038;-37
2023/04/29 01:06:06;;;;;;;42.80;31.15;;;8.90;99.90;;;;;;5083874;28;20047;-43
2023/04/29 01:08:56;;;;;;;46.85;30.77;;;8.90;99.90;;;;;;5095403;28;20086;-43
2023/04/29 01:11:26;;;;;;;43.53;30.60;;;8.90;99.90;;;;;;5093599;28;20055;-41
2023/04/29 01:14:00;;;;;;;46.92;29.38;;;9.00;99.90;;;;;;5095900;28;20120;-44
2023/04/29 01:16:50;;;;;;;46.33;30.10;;;9.00;99.90;;;;;;5095840;28;20525;-37
2023/04/29 01:19:37;;;;;;;46.15;28.73;;;9.00;99.90;;;;;;5094588;28;20046;-39
2023/04/29 01:22:03;;;;;;;41.03;28.35;;;9.00;99.90;;;;;;5095524;28;20082;-36
2023/04/29 01:24:29;;;;;;;43.00;30.52;;;9.00;99.90;;;;;;5095580;28;20126;-41
2023/04/29 01:27:07;;;;;;;44.70;29.35;;;9.00;99.90;;;;;;5096101;28;20097;-42
2023/04/29 01:29:56;;;;;;;41.40;28.85;;;9.00;99.90;;;;;;5083429;28;20394;-36
2023/04/29 01:32:35;;;;;;;37.40;27.20;;;9.00;99.90;;;;;;5094668;28;20117;-42
2023/04/29 01:35:09;;;;;;;35.13;27.83;;;9.00;99.90;;;;;;5095148;28;20552;-37
2023/04/29 01:37:47;;;;;;;44.10;29.25;;;9.00;99.90;;;;;;5082796;28;20056;-37
2023/04/29 01:40:24;;;;;;;40.22;28.95;;;9.00;99.90;;;;;;5095035;28;20040;-40
2023/04/29 01:43:00;;;;;;;35.88;27.42;;;9.00;99.90;;;;;;5094735;28;20500;-37
2023/04/29 01:45:27;;;;;;;39.80;28.40;;;9.00;99.90;;;;;;5095174;28;20046;-36
2023/04/29 01:47:57;;;;;;;44.03;28.67;;;9.00;99.90;;;;;;5095444;28;20110;-40
2023/04/29 01:50:23;;;;;;;40.90;27.23;;;9.00;99.90;;;;;;5095885;28;20039;-39
2023/04/29 01:52:49;;;;;;;36.92;26.70;;;9.00;99.90;;;;;;5094340;28;20028;-37
2023/04/29 01:55:15;;;;;;;38.13;26.80;;;9.00;99.90;;;;;;5094944;28;20046;-41
2023/04/29 01:57:40;;;;;;;34.97;27.80;;;9.00;99.90;;;;;;5095052;28;20047;-43
2023/04/29 02:00:07;;;;;;;38.92;26.70;;;9.00;99.90;;;;;;5095085;28;20100;-38
2023/04/29 02:02:33;;;;;;;32.45;26.63;;;9.00;99.90;;;;;;5087785;28;20051;-43
2023/04/29 02:04:59;;;;;;;35.28;27.73;;;9.00;99.90;;;;;;5108704;28;20094;-36
2023/04/29 02:07:25;;;;;;;37.90;28.98;;;9.00;99.90;;;;;;5094194;28;20560;-40
2023/04/29 02:09:50;;;;;;;37.88;26.27;;;9.00;99.90;;;;;;5094628;28;20048;-38
2023/04/29 02:12:16;;;;;;;40.78;26.10;;;9.00;99.90;;;;;;5094256;28;20945;-35
2023/04/29 02:14:42;;;;;;;35.40;25.23;;;8.90;99.90;;;;;;5094572;28;20434;-39
2023/04/29 02:17:08;;;;;;;35.75;26.85;;;9.00;99.90;;;;;;5097602;28;20054;-44
2023/04/29 02:19:34;;;;;;;35.13;25.52;;;9.00;99.90;;;;;;5098188;28;20044;-43
2023/04/29 02:21:59;;;;;;;37.65;26.48;;;9.00;99.90;;;;;;5096853;28;20122;-39
2023/04/29 02:24:25;;;;;;;43.55;28.02;;;9.00;99.90;;;;;;5080681;28;20075;-41
2023/04/29 02:26:51;;;;;;;44.97;27.48;;;9.00;99.90;;;;;;5098042;28;20042;-40
2023/04/29 02:29:17;;;;;;;40.20;26.70;;;9.00;99.90;;;;;;5097798;28;20043;-35
2023/04/29 02:31:43;;;;;;;35.53;26.92;;;8.90;99.90;;;;;;5097622;28;20047;-44
2023/04/29 02:34:09;;;;;;;33.65;25.00;;;8.90;99.90;;;;;;5079293;28;20120;-39
2023/04/29 02:36:34;;;;;;;43.28;27.92;;;8.90;99.90;;;;;;5098677;28;20386;-40
2023/04/29 02:39:00;;;;;;;36.90;26.52;;;8.90;99.90;;;;;;5096483;28;20051;-38
2023/04/29 02:41:26;;;;;;;38.70;26.42;;;8.90;99.90;;;;;;5097789;28;20079;-39
2023/04/29 02:43:51;;;;;;;40.80;30.15;;;8.90;99.90;;;;;;5098705;28;20052;-36
2023/04/29 02:46:18;;;;;;;37.60;26.48;;;8.90;99.90;;;;;;5086551;28;20067;-41
2023/04/29 02:48:44;;;;;;;44.55;28.38;;;8.80;99.90;;;;;;5097985;28;20043;-43
2023/04/29 02:51:09;;;;;;;40.10;28.27;;;8.80;99.90;;;;;;5098371;28;20047;-46
2023/04/29 02:53:35;;;;;;;42.03;29.13;;;8.80;99.90;;;;;;5082929;28;20412;-42
2023/04/29 02:56:01;;;;;;;42.58;29.23;;;8.80;99.90;;;;;;5087953;28;20051;-43
2023/04/29 02:58:27;;;;;;;46.28;30.90;;;8.80;99.90;;;;;;5097814;28;20035;-43
2023/04/29 03:00:52;;;;;;;43.97;30.58;;;8.70;99.90;;;;;;5098352;28;20466;-35
2023/04/29 03:03:18;;;;;;;44.95;29.00;;;8.70;99.90;;;;;;5096677;28;20044;-42
2023/04/29 03:05:44;;;;;;;43.95;31.85;;;8.70;99.90;;;;;;5097849;28;20482;-39
2023/04/29 03:08:10;;;;;;;48.83;29.48;;;8.70;99.90;;;;;;5097288;28;20097;-38
2023/04/29 03:10:36;;;;;;;44.55;30.45;;;8.70;99.90;;;;;;5097945;28;20086;-45
2023/04/29 03:13:02;;;;;;;46.53;29.48;;;8.70;99.90;;;;;;5097106;28;20073;-37
2023/04/29 03:15:28;;;;;;;49.33;31.48;;;8.70;99.90;;;;;;5097722;28;20058;-46
2023/04/29 03:17:54;;;;;;;44.15;30.63;;;8.70;99.90;;;;;;5097137;28;20115;-42
2023/04/29 03:20:20;;;;;;;41.70;30.17;;;8.70;99.90;;;;;;5097399;28;20378;-39
2023/04/29 03:22:45;;;;;;;43.53;30.25;;;8.70;99.90;;;;;;5083819;28;20135;-40
2023/04/29 03:25:12;;;;;;;47.38;31.20;;;8.70;99.90;;;;;;5098041;28;20043;-41
2023/04/29 03:27:38;;;;;;;52.53;30.00;;;8.70;99.90;;;;;;5097159;28;20051;-35
2023/04/29 03:30:05;;;;;;;41.53;27.50;;;8.70;99.90;;;;;;5097633;28;20374;-39
2023/04/29 03:32:30;;;;;;;40.63;27.83;;;8.70;99.90;;;;;;5096402;28;20562;-42
2023/04/29 03:34:56;;;;;;;43.60;28.35;;;8.70;99.90;;;;;;5097379;28;20048;-39
2023/04/29 03:37:22;;;;;;;40.60;26.52;;;8.80;99.90;;;;;;5112047;27;20047;-41
2023/04/29 03:39:48;;;;;;;43.22;29.27;;;8.70;99.90;;;;;;5097172;28;20094;-36
2023/04/29 03:42:13;;;;;;;41.78;27.30;;;8.70;99.90;;;;;;5096677;28;20122;-39
2023/04/29 03:44:39;;;;;;;38.88;26.58;;;8.70;99.90;;;;;;5097063;28;20050;-42
2023/04/29 03:47:05;;;;;;;40.55;26.58;;;8.70;99.90;;;;;;5082308;28;20301;-42
2023/04/29 03:49:31;;;;;;;38.53;25.42;;;8.70;99.90;;;;;;5084501;28;20059;-43
2023/04/29 03:51:57;;;;;;;33.42;24.63;;;8.70;99.90;;;;;;5096066;28;20039;-42
2023/04/29 03:54:23;;;;;;;31.90;23.98;;;8.70;99.90;;;;;;5096890;28;20086;-40
2023/04/29 03:56:48;;;;;;;34.85;24.10;;;8.70;99.90;;;;;;5096672;28;20700;-37
2023/04/29 03:59:14;;;;;;;35.63;24.85;;;8.70;99.90;;;;;;5096485;28;20146;-39
2023/04/29 04:01:40;;;;;;;38.28;24.60;;;8.70;99.90;;;;;;5095511;28;20465;-40
2023/04/29 04:04:05;;;;;;;33.20;23.90;;;8.60;99.90;;;;;;5086173;28;20477;-47
2023/04/29 04:06:31;;;;;;;35.63;25.58;;;8.60;99.90;;;;;;5092981;28;20092;-39
2023/04/29 04:08:57;;;;;;;32.90;25.23;;;8.60;99.90;;;;;;5096564;28;20126;-48
2023/04/29 04:11:22;;;;;;;35.45;23.83;;;8.60;99.90;;;;;;5095867;28;20048;-38
2023/04/29 04:13:48;;;;;;;37.10;24.85;;;8.60;99.90;;;;;;5096508;28;20036;-44
2023/04/29 04:16:14;;;;;;;38.38;24.20;;;8.60;99.90;;;;;;5096368;28;20114;-39
2023/04/29 04:18:40;;;;;;;38.83;24.65;;;8.60;99.90;;;;;;5095390;28;20043;-44
2023/04/29 04:21:10;;;;;;;31.02;23.02;;;8.60;99.90;;;;;;5095652;28;20085;-46
2023/04/29 04:23:39;;;;;;;34.00;23.58;;;8.60;99.90;;;;;;5096752;28;20043;-46
2023/04/29 04:26:05;;;;;;;33.63;22.25;;;8.50;99.90;;;;;;5083000;28;20043;-44
2023/04/29 04:28:30;;;;;;;34.95;23.42;;;8.60;99.90;;;;;;5095365;28;20050;-41
2023/04/29 04:30:57;;;;;;;36.50;23.95;;;8.50;99.90;;;;;;5096124;28;20039;-39
2023/04/29 04:33:23;;;;;;;30.65;23.48;;;8.50;99.90;;;;;;5095259;28;20084;-40
2023/04/29 04:35:49;;;;;;;34.97;23.00;;;8.60;99.90;;;;;;5111957;27;20150;-40
2023/04/29 04:38:15;;;;;;;33.45;25.20;;;8.50;99.90;;;;;;5075933;28;20085;-46
2023/04/29 04:40:41;;;;;;;38.85;25.60;;;8.60;99.90;;;;;;5095622;28;20044;-41
2023/04/29 04:43:07;;;;;;;34.50;22.73;;;8.60;99.90;;;;;;5095442;28;20043;-39
2023/04/29 04:45:33;;;;;;;36.42;24.67;;;8.60;99.90;;;;;;5095580;28;20085;-38
2023/04/29 04:47:58;;;;;;;36.05;23.73;;;8.60;99.90;;;;;;5094983;28;20372;-40
2023/04/29 04:50:29;;;;;;;30.77;22.00;;;8.60;99.90;;;;;;5095768;28;20524;-42
2023/04/29 04:52:56;;;;;;;34.08;22.00;;;8.60;99.90;;;;;;5077381;28;20226;-41
2023/04/29 04:55:23;;;;;;;34.65;21.75;;;8.60;99.90;;;;;;5111136;27;20043;-38
2023/04/29 04:57:49;;;;;;;31.08;19.48;;;8.60;99.90;;;;;;5075523;28;20568;-39
2023/04/29 05:00:15;;;;;;;33.65;19.52;;;8.60;99.90;;;;;;5095179;28;20040;-43
2023/04/29 05:02:40;;;;;;;31.90;18.90;;;8.60;99.90;;;;;;5075968;28;20039;-43
2023/04/29 05:05:06;;;;;;;28.42;18.73;;;8.60;99.90;;;;;;5095341;28;20176;-41
2023/04/29 05:07:34;;;;;;;31.70;19.08;;;8.60;99.90;;;;;;5076659;28;20501;-39
2023/04/29 05:10:01;;;;;;;28.52;17.75;;;8.60;99.90;;;;;;5065297;28;20531;-39
2023/04/29 05:12:29;;;;;;;25.85;17.67;;;8.70;99.90;;;;;;5094667;28;20047;-39
2023/04/29 05:14:55;;;;;;;23.73;16.48;;;8.70;99.90;;;;;;5095342;28;20483;-41
2023/04/29 05:17:21;;;;;;;25.45;16.08;;;8.70;99.90;;;;;;5095067;28;20400;-40
2023/04/29 05:19:47;;;;;;;25.20;15.43;;;8.70;99.90;;;;;;5094965;28;20047;-36
2023/04/29 05:22:12;;;;;;;26.00;15.27;;;8.70;99.90;;;;;;5109935;28;20127;-41
2023/04/29 05:24:38;;;;;;;21.17;15.13;;;8.70;99.90;;;;;;5095326;28;20043;-36
2023/04/29 05:27:04;;;;;;;25.08;14.30;;;8.70;99.90;;;;;;5094703;28;20044;-42
2023/04/29 05:29:30;;;;;;;25.42;15.23;;;8.80;99.90;;;;;;5094480;28;20035;-40
2023/04/29 05:31:55;;;;;;;25.13;14.68;;;8.80;99.90;;;;;;5094849;28;20150;-43
2023/04/29 05:34:21;;;;;;;22.30;13.95;;;8.80;99.90;;;;;;5095264;28;20522;-39
2023/04/29 05:36:47;;;;;;;26.50;14.02;;;8.80;99.90;;;;;;5094550;28;20044;-37
2023/04/29 05:39:12;;;;;;;26.80;13.82;;;8.80;99.90;;;;;;5087524;28;20373;-35
2023/04/29 05:41:38;;;;;;;20.38;14.20;;;8.90;99.90;;;;;;5094267;28;20075;-41
2023/04/29 05:44:04;;;;;;;20.13;13.48;;;9.00;99.90;;;;;;5095098;28;20477;-44
2023/04/29 05:46:29;;;;;;;18.20;13.23;;;9.10;99.90;;;;;;5095117;28;20047;-37
2023/04/29 05:48:55;;;;;;;20.17;13.48;;;9.40;99.90;;;;;;5094678;28;20558;-40
2023/04/29 05:51:21;;;;;;;19.02;13.02;;;9.50;99.90;;;;;;5096682;28;20051;-41
2023/04/29 05:53:46;;;;;;;22.80;12.88;;;9.70;99.90;;;;;;5079519;28;20338;-36
2023/04/29 05:56:12;;;;;;;17.63;12.18;;;9.80;99.90;;;;;;5097889;28;20040;-42
2023/04/29 05:58:37;;;;;;;19.08;12.23;;;10.00;99.90;;;;;;5097035;28;20385;-36
2023/04/29 06:01:03;;;;;;;17.05;11.73;;;10.20;99.90;;;;;;5113306;27;20051;-41
2023/04/29 06:03:29;;;;;;;20.40;12.27;;;10.30;99.90;;;;;;5097652;28;20549;-38
2023/04/29 06:05:56;;;;;;;21.55;12.20;;;10.70;99.90;;;;;;5098031;28;20544;-38
2023/04/29 06:08:22;;;;;;;17.00;11.63;;;11.80;99.90;;;;;;5078603;28;20074;-39
2023/04/29 06:10:50;;;;;;;16.65;10.85;;;13.50;99.90;;;;;;5097191;28;20610;-40
2023/04/29 06:13:16;;;;;;;16.48;11.02;;;15.10;99.90;;;;;;5098038;28;20043;-44
2023/04/29 06:15:42;;;;;;;13.10;11.18;;;16.10;99.90;;;;;;5098721;28;20382;-41
2023/04/29 06:18:07;;;;;;;12.82;9.40;;;16.40;99.90;;;;;;5097614;28;20075;-43
2023/04/29 06:20:33;;;;;;;16.70;10.13;;;16.90;99.90;;;;;;5113249;27;20051;-36
2023/04/29 06:22:58;;;;;;;15.30;9.82;;;17.40;99.90;;;;;;5096794;28;20065;-38
2023/04/29 06:25:24;;;;;;;12.70;9.65;;;17.80;99.90;;;;;;5097303;28;20124;-47
2023/04/29 06:27:50;;;;;;;15.07;9.68;;;17.50;99.90;;;;;;5097097;28;20390;-45
2023/04/29 06:30:15;;;;;;;12.85;9.82;;;17.90;99.90;;;;;;5078981;28;20035;-45
2023/04/29 06:32:41;;;;;;;12.93;9.50;;;18.40;99.90;;;;;;5096929;28;20119;-47
2023/04/29 06:35:07;;;;;;;13.15;8.98;;;17.80;99.90;;;;;;5097401;28;20096;-41
2023/04/29 06:37:33;;;;;;;14.82;9.05;;;18.20;99.90;;;;;;5097032;28;20039;-36
2023/04/29 06:39:59;;;;;;;12.95;8.98;;;18.30;99.90;;;;;;5096892;28;20044;-41
2023/04/29 06:42:24;;;;;;;14.20;9.10;;;17.90;99.90;;;;;;5096705;28;20048;-47
2023/04/29 06:44:50;;;;;;;13.90;9.18;;;18.20;99.90;;;;;;5097254;28;20115;-40
2023/04/29 06:47:16;;;;;;;11.43;8.70;;;18.70;99.90;;;;;;5096691;28;20111;-41
2023/04/29 06:49:44;;;;;;;11.82;8.55;;;18.70;99.90;;;;;;5097098;28;20051;-47
2023/04/29 06:52:10;;;;;;;13.30;8.10;;;18.90;99.90;;;;;;5079269;28;20044;-42
2023/04/29 06:54:36;;;;;;;13.35;9.10;;;19.10;99.90;;;;;;5096867;28;20046;-47
2023/04/29 06:57:02;;;;;;;14.23;8.43;;;19.30;99.90;;;;;;5097369;28;20046;-40
2023/04/29 06:59:28;;;;;;;12.68;8.20;;;20.00;99.90;;;;;;5097798;28;20556;-40
2023/04/29 07:01:53;;;;;;;10.82;8.27;;;19.50;99.90;;;;;;5097315;28;20085;-41
2023/04/29 07:04:19;;;;;;;14.98;9.23;;;18.50;99.90;;;;;;5097633;28;20047;-40
2023/04/29 07:06:45;;;;;;;10.45;8.32;;;18.10;99.90;;;;;;5097868;28;20078;-43
2023/04/29 07:09:15;;;;;;;12.30;8.82;;;17.40;99.90;;;;;;5095406;28;20035;-44
2023/04/29 07:11:41;;;;;;;16.60;8.38;;;16.70;99.90;;;;;;5083739;28;20527;-42
2023/04/29 07:14:07;;;;;;;14.55;9.38;;;16.10;99.90;;;;;;5097087;28;20485;-40
2023/04/29 07:16:33;;;;;;;12.80;9.15;;;16.00;99.90;;;;;;5097606;28;20110;-43
2023/04/29 07:18:59;;;;;;;11.63;9.75;;;16.10;99.90;;;;;;5096050;28;20049;-43
2023/04/29 07:21:25;;;;;;;12.85;9.85;;;15.70;99.90;;;;;;5078250;28;20398;-46
2023/04/29 07:23:51;;;;;;;14.23;9.52;;;15.40;99.90;;;;;;5096480;28;20047;-42
2023/04/29 07:26:17;;;;;;;14.10;9.00;;;15.40;99.90;;;;;;5097198;28;20054;-39
2023/04/29 07:28:44;;;;;;;11.48;8.70;;;15.00;99.90;;;;;;5096740;28;20048;-37
2023/04/29 07:31:11;;;;;;;15.27;8.70;;;15.50;99.90;;;;;;5097178;28;20078;-40
2023/04/29 07:33:37;;;;;;;17.95;9.52;;;15.10;99.90;;;;;;5096854;28;20047;-42
2023/04/29 07:36:03;;;;;;;14.68;9.32;;;15.00;99.90;;;;;;5096279;28;20883;-40
2023/04/29 07:38:29;;;;;;;13.43;9.05;;;15.10;99.90;;;;;;5076452;28;20086;-43
2023/04/29 07:40:55;;;;;;;15.55;10.23;;;15.30;99.90;;;;;;5096118;28;20779;-41
2023/04/29 07:43:21;;;;;;;16.63;9.13;;;14.50;99.90;;;;;;5096674;28;20113;-43
2023/04/29 07:45:47;;;;;;;12.73;9.18;;;14.40;99.90;;;;;;5096729;28;20310;-37
2023/04/29 07:48:13;;;;;;;13.73;8.80;;;14.10;99.90;;;;;;5095789;28;20059;-42
2023/04/29 07:50:39;;;;;;;15.38;9.52;;;14.00;99.90;;;;;;5096224;28;20101;-45
2023/04/29 07:53:05;;;;;;;14.05;9.23;;;13.90;99.90;;;;;;5095010;28;20371;-42
2023/04/29 07:55:31;;;;;;;12.70;9.43;;;14.20;99.90;;;;;;5097259;28;20489;-42
2023/04/29 07:57:57;;;;;;;11.60;9.18;;;14.20;99.90;;;;;;5096269;28;20122;-41
2023/04/29 08:00:24;;;;;;;16.48;9.13;;;14.00;99.90;;;;;;5096842;28;20090;-40
2023/04/29 08:02:54;;;;;;;12.05;8.88;;;13.90;99.90;;;;;;5095881;28;20102;-43
2023/04/29 08:05:20;;;;;;;13.07;9.25;;;13.90;99.90;;;;;;5096074;28;20482;-44
2023/04/29 08:07:47;;;;;;;12.90;9.35;;;14.20;99.90;;;;;;5095995;28;20044;-38
2023/04/29 08:10:14;;;;;;;13.82;9.90;;;14.60;99.90;;;;;;5078648;28;20044;-37
2023/04/29 08:12:40;;;;;;;11.30;9.20;;;14.60;99.90;;;;;;5077230;28;20055;-45
2023/04/29 08:15:06;;;;;;;13.23;8.95;;;14.70;99.90;;;;;;5085772;28;20091;-46
2023/04/29 08:17:32;;;;;;;14.93;9.15;;;14.70;99.90;;;;;;5096050;28;20409;-39
2023/04/29 08:19:58;;;;;;;12.43;8.55;;;14.70;99.90;;;;;;5096253;28;20051;-41
2023/04/29 08:22:23;;;;;;;13.75;8.60;;;14.70;99.90;;;;;;5091191;28;20047;-41
2023/04/29 08:24:49;;;;;;;10.88;8.27;;;14.90;99.90;;;;;;5095340;28;20582;-37
2023/04/29 08:27:15;;;;;;;13.18;8.45;;;15.20;99.90;;;;;;5094957;28;20047;-45
2023/04/29 08:29:41;;;;;;;18.17;8.60;;;15.20;99.90;;;;;;5096111;28;20105;-43
2023/04/29 08:32:07;;;;;;;10.02;7.13;;;15.10;99.90;;;;;;5094561;28;20096;-42
2023/04/29 08:34:35;;;;;;;16.98;8.75;;;15.30;99.90;;;;;;5095341;28;20563;-40
2023/04/29 08:37:01;;;;;;;11.38;8.75;;;15.50;99.90;;;;;;5094546;28;20113;-42
2023/04/29 08:39:30;;;;;;;14.00;7.85;;;15.30;99.90;;;;;;5094959;28;20474;-43
2023/04/29 08:41:56;;;;;;;14.25;7.78;;;15.30;99.90;;;;;;5095109;28;20492;-46
2023/04/29 08:44:22;;;;;;;12.60;7.88;;;14.80;99.90;;;;;;5095381;28;20148;-39
2023/04/29 08:46:49;;;;;;;12.93;8.15;;;14.60;99.90;;;;;;5094269;28;20047;-46
2023/04/29 08:49:15;;;;;;;12.00;8.30;;;14.30;99.90;;;;;;5095387;28;20101;-43
2023/04/29 08:51:41;;;;;;;14.20;8.43;;;14.60;99.90;;;;;;5093659;28;20672;-45
2023/04/29 08:54:06;;;;;;;11.30;8.63;;;14.70;99.90;;;;;;5094165;28;20082;-41
2023/04/29 08:56:33;;;;;;;12.63;8.70;;;14.60;99.90;;;;;;5078423;28;20047;-37
2023/04/29 08:59:01;;;;;;;13.65;8.13;;;14.50;99.90;;;;;;5094395;28;20051;-40
2023/04/29 09:01:28;;;;;;;13.18;8.38;;;14.60;99.90;;;;;;5093531;28;20043;-38
2023/04/29 09:04:12;;;;;;;14.65;8.48;;;14.30;99.90;;;;;;5094717;28;20042;-46
2023/04/29 09:06:38;;;;;;;13.30;8.98;;;14.40;99.90;;;;;;5093022;28;20048;-41
2023/04/29 09:09:05;;;;;;;9.68;7.57;;;14.50;99.90;;;;;;5093892;28;20048;-40
2023/04/29 09:11:31;;;;;;;11.38;8.52;;;14.60;99.90;;;;;;5093667;28;20086;-43
2023/04/29 09:14:01;;;;;;;13.20;9.18;;;14.70;99.90;;;;;;5094455;28;20123;-41
2023/04/29 09:16:27;;;;;;;17.08;9.10;;;14.50;99.90;;;;;;5094984;28;20507;-38
2023/04/29 09:18:54;;;;;;;10.73;8.57;;;14.50;99.90;;;;;;5094031;28;20573;-40
2023/04/29 09:21:26;;;;;;;15.52;8.35;;;14.60;99.90;;;;;;5092924;28;20520;-42
2023/04/29 09:24:01;;;;;;;11.75;8.80;;;14.60;99.90;;;;;;5104023;27;20052;-40
2023/04/29 09:26:39;;;;;;;11.30;8.73;;;14.60;99.90;;;;;;5091646;28;20055;-45
2023/04/29 09:29:07;;;;;;;13.75;8.73;;;14.60;99.90;;;;;;5092542;28;20276;-46
2023/04/29 09:31:32;;;;;;;14.73;9.30;;;14.70;99.90;;;;;;5094161;28;20077;-43
2023/04/29 09:33:58;;;;;;;12.77;9.13;;;14.70;99.90;;;;;;5095582;28;20461;-40
2023/04/29 09:36:44;;;;;;;11.40;7.75;;;14.40;99.90;;;;;;5094872;28;20557;-42
2023/04/29 09:39:18;;;;;;;10.85;8.68;;;14.50;99.90;;;;;;5074869;28;20167;-43
2023/04/29 09:41:53;;;;;;;12.30;9.73;;;14.80;99.90;;;;;;5091099;28;20050;-42
2023/04/29 09:44:24;;;;;;;13.80;9.02;;;14.80;99.90;;;;;;5092961;28;20040;-43
2023/04/29 09:47:03;;;;;;;10.25;8.32;;;14.60;99.90;;;;;;5074759;28;20106;-40
2023/04/29 09:49:32;;;;;;;10.00;7.95;;;14.70;99.90;;;;;;5094021;28;20044;-43
2023/04/29 09:52:03;;;;;;;10.48;8.35;;;14.70;99.90;;;;;;5076400;28;20036;-43
2023/04/29 09:54:31;;;;;;;11.60;7.82;;;14.60;99.90;;;;;;5086690;28;20155;-39
2023/04/29 09:56:58;;;;;;;10.93;9.13;;;14.90;99.90;;;;;;5094058;28;20387;-40
2023/04/29 09:59:25;;;;;;;9.98;7.40;;;15.00;99.90;;;;;;5094720;28;21014;-38
2023/04/29 10:01:55;;;;;;;12.25;8.32;;;14.80;99.90;;;;;;5094109;28;20115;-45
2023/04/29 10:04:23;;;;;;;9.68;8.32;;;15.00;99.90;;;;;;5093718;28;20055;-44
2023/04/29 10:06:51;;;;;;;10.45;7.28;;;15.10;99.90;;;;;;5094023;28;20303;-40
2023/04/29 10:09:17;;;;;;;11.05;7.70;;;15.30;99.90;;;;;;5093896;28;20048;-41
2023/04/29 10:11:45;;;;;;;8.75;6.28;;;15.20;99.90;;;;;;5092515;28;20387;-38
2023/04/29 10:14:13;;;;;;;11.43;5.65;;;15.00;99.90;;;;;;5080585;28;20055;-44
2023/04/29 10:16:49;;;;;;;8.93;5.65;;;15.20;99.90;;;;;;5094221;28;20131;-46
2023/04/29 10:19:31;;;;;;;8.38;3.97;;;14.80;99.90;;;;;;5094578;28;20063;-45
2023/04/29 10:22:02;;;;;;;12.77;7.10;;;14.70;99.90;;;;;;5093612;28;20490;-46
2023/04/29 10:24:29;;;;;;;10.07;6.18;;;14.60;99.90;;;;;;5109239;28;20059;-43
2023/04/29 10:26:55;;;;;;;12.65;6.13;;;14.80;99.90;;;;;;5093597;28;20513;-41
2023/04/29 10:29:21;;;;;;;9.18;7.00;;;15.00;99.90;;;;;;5094439;28;20070;-42
2023/04/29 10:31:48;;;;;;;9.68;7.10;;;15.20;99.90;;;;;;5093322;28;20056;-38
2023/04/29 10:34:16;;;;;;;12.10;7.22;;;15.20;99.90;;;;;;5094363;28;20379;-43
2023/04/29 10:36:43;;;;;;;11.75;7.80;;;15.40;99.90;;;;;;5094733;28;20048;-43
2023/04/29 10:39:15;;;;;;;11.65;8.40;;;15.70;99.90;;;;;;5098129;28;20051;-45
2023/04/29 10:41:46;;;;;;;12.75;7.75;;;15.40;99.90;;;;;;5097224;28;20468;-41
2023/04/29 10:44:13;;;;;;;9.35;7.50;;;15.70;99.90;;;;;;5097528;28;20105;-44
2023/04/29 10:46:39;;;;;;;12.50;7.85;;;15.50;99.90;;;;;;5097324;28;20436;-43
2023/04/29 10:49:05;;;;;;;12.52;7.55;;;15.60;99.90;;;;;;5097494;28;20063;-43
2023/04/29 10:51:34;;;;;;;10.35;7.03;;;15.70;99.90;;;;;;5096452;28;20054;-40
2023/04/29 10:54:15;;;;;;;10.32;7.35;;;16.00;99.90;;;;;;5113346;27;20043;-46
2023/04/29 10:56:59;;;;;;;8.55;6.28;;;15.80;99.90;;;;;;5096619;28;20075;-46
2023/04/29 10:59:35;;;;;;;10.82;6.47;;;15.90;99.90;;;;;;5096630;28;20091;-42
2023/04/29 11:02:01;;;;;;;7.75;6.00;;;15.80;99.90;;;;;;5096878;28;20083;-44
2023/04/29 11:04:30;;;;;;;8.70;6.40;;;15.90;99.90;;;;;;5113081;27;20548;-38
2023/04/29 11:06:57;;;;;;;7.53;5.57;;;16.00;99.90;;;;;;5086138;28;20052;-43
2023/04/29 11:09:27;;;;;;;11.93;5.43;;;16.00;99.90;;;;;;5098030;28;20044;-41
2023/04/29 11:12:04;;;;;;;7.75;4.80;;;16.10;99.90;;;;;;5096926;28;20130;-39
2023/04/29 11:14:41;;;;;;;10.13;4.80;;;16.10;99.90;;;;;;5091479;28;20555;-43
2023/04/29 11:17:09;;;;;;;10.73;4.60;;;16.10;99.90;;;;;;5089892;28;20094;-44
2023/04/29 11:19:39;;;;;;;8.15;4.40;;;16.00;99.90;;;;;;5079041;28;20052;-47
2023/04/29 11:22:13;;;;;;;7.45;4.35;;;15.80;99.90;;;;;;5095859;28;20085;-46
2023/04/29 11:24:53;;;;;;;5.70;3.70;;;15.90;99.90;;;;;;5096464;28;20036;-38
2023/04/29 11:27:24;;;;;;;8.00;4.00;;;16.10;99.90;;;;;;5095756;28;20047;-38
2023/04/29 11:29:51;;;;;;;7.68;4.50;;;16.20;99.90;;;;;;5080331;28;20051;-39
2023/04/29 11:32:20;;;;;;;7.47;4.28;;;16.20;99.90;;;;;;5095902;28;20055;-41
2023/04/29 11:34:46;;;;;;;8.35;4.22;;;16.30;99.90;;;;;;5078488;28;20047;-46
2023/04/29 11:37:12;;;;;;;7.75;4.55;;;16.20;99.90;;;;;;5096017;28;20080;-43
2023/04/29 11:39:37;;;;;;;5.97;3.70;;;16.30;99.90;;;;;;5096208;28;20050;-39
2023/04/29 11:42:06;;;;;;;4.07;3.10;;;16.30;99.90;;;;;;5096072;28;20054;-43
2023/04/29 11:44:36;;;;;;;3.67;2.75;;;16.30;99.90;;;;;;5096503;28;20044;-42
2023/04/29 11:47:07;;;;;;;4.22;2.88;;;16.10;99.90;;;;;;5096400;28;20145;-41
2023/04/29 11:49:36;;;;;;;4.88;2.55;;;16.00;99.90;;;;;;5111612;27;20062;-37
2023/04/29 11:52:01;;;;;;;5.43;2.60;;;15.90;99.20;;;;;;5095544;28;20403;-45
2023/04/29 11:54:29;;;;;;;5.43;3.50;;;15.90;99.60;;;;;;5112272;27;20478;-49
2023/04/29 11:56:55;;;;;;;8.05;3.42;;;15.70;99.90;;;;;;5096123;28;20130;-37
2023/04/29 11:59:21;;;;;;;5.90;3.10;;;15.80;99.90;;;;;;5096387;28;20406;-42
2023/04/29 12:01:50;;;;;;;5.53;3.22;;;15.40;99.90;;;;;;5095368;28;20040;-41
2023/04/29 12:04:18;;;;;;;6.30;3.25;;;15.40;99.90;;;;;;5095780;28;20486;-42
2023/04/29 12:06:44;;;;;;;7.85;4.05;;;15.30;99.90;;;;;;5095674;28;20050;-45
2023/04/29 12:09:09;;;;;;;4.70;3.28;;;15.40;99.90;;;;;;5096119;28;20359;-37
2023/04/29 12:11:38;;;;;;;4.10;3.05;;;15.30;99.90;;;;;;5095071;28;20327;-45
2023/04/29 12:14:07;;;;;;;4.85;3.15;;;15.30;99.90;;;;;;5096171;28;20382;-43
2023/04/29 12:16:34;;;;;;;6.97;2.90;;;15.00;99.90;;;;;;5095485;28;20039;-48
2023/04/29 12:19:00;;;;;;;4.97;3.35;;;14.90;99.90;;;;;;5095709;28;20051;-39
2023/04/29 12:21:27;;;;;;;9.48;4.07;;;14.90;99.90;;;;;;5110767;27;20375;-44
2023/04/29 12:23:53;;;;;;;7.35;4.13;;;15.00;99.90;;;;;;5111164;27;20788;-40
2023/04/29 12:26:19;;;;;;;5.10;4.50;;;14.90;99.90;;;;;;5095254;28;20739;-48
2023/04/29 12:28:47;;;;;;;6.47;3.90;;;14.70;99.90;;;;;;5093407;27;20607;-43
2023/04/29 12:31:14;;;;;;;5.05;3.35;;;14.60;99.90;;;;;;5090350;27;20039;-43
2023/04/29 12:33:45;;;;;;;4.75;2.55;;;14.50;99.90;;;;;;5091497;27;20127;-44
2023/04/29 12:36:18;;;;;;;9.10;3.50;;;14.50;99.90;;;;;;5091518;28;20118;-46
2023/04/29 12:38:44;;;;;;;3.85;3.17;;;14.40;99.90;;;;;;5092191;28;20050;-47